sensor_id;sensor_type;location;lat;lon;timestamp;temperature;humidity
15184;DHT22;7693;49.266;7.104;2022-09-20T00:02:17;9.20;99.90
15184;DHT22;7693;49.266;7.104;2022-09-20T00:04:42;9.30;99.90
15184;DHT22;7693;49.266;7.104;2022-09-20T00:07:08;9.30;99.90
15184;DHT22;7693;49.266;7.104;2022-09-20T00:09:34;9.30;99.90
15184;DHT22;7693;49.266;7.104;2022-09-20T00:11:59;9.30;99.90
15184;DHT22;7693;49.266;7.104;2022-09-20T00:14:25;9.30;99.90
15184;DHT22;7693;49.266;7.104;2022-09-20T00:16:51;9.30;99.90
15184;DHT22;7693;49.266;7.104;2022-09-20T00:19:19;9.30;99.90
15184;DHT22;7693;49.266;7.104;2022-09-20T00:21:45;9.20;99.90
15184;DHT22;7693;49.266;7.104;2022-09-20T00:24:11;9.30;99.90
15184;DHT22;7693;49.266;7.104;2022-09-20T00:26:37;9.20;99.90
15184;DHT22;7693;49.266;7.104;2022-09-20T00:29:03;9.20;99.90
15184;DHT22;7693;49.266;7.104;2022-09-20T00:31:29;9.20;99.90
15184;DHT22;7693;49.266;7.104;2022-09-20T00:33:57;9.20;99.90
15184;DHT22;7693;49.266;7.104;2022-09-20T00:36:41;9.20;99.90
15184;DHT22;7693;49.266;7.104;2022-09-20T00:39:10;9.10;99.90
15184;DHT22;7693;49.266;7.104;2022-09-20T00:41:36;9.10;99.90
15184;DHT22;7693;49.266;7.104;2022-09-20T00:44:35;9.10;99.90
15184;DHT22;7693;49.266;7.104;2022-09-20T00:46:47;9.10;99.90
15184;DHT22;7693;49.266;7.104;2022-09-20T00:49:20;9.10;99.90
15184;DHT22;7693;49.266;7.104;2022-09-20T00:51:53;9.10;99.90
15184;DHT22;7693;49.266;7.104;2022-09-20T00:54:21;9.00;99.90
15184;DHT22;7693;49.266;7.104;2022-09-20T00:56:47;9.00;99.90
15184;DHT22;7693;49.266;7.104;2022-09-20T01:02:00;9.00;99.90
15184;DHT22;7693;49.266;7.104;2022-09-20T01:04:28;9.00;99.90
15184;DHT22;7693;49.266;7.104;2022-09-20T01:06:57;8.90;99.90
15184;DHT22;7693;49.266;7.104;2022-09-20T01:09:24;8.90;99.90
15184;DHT22;7693;49.266;7.104;2022-09-20T01:11:51;8.90;99.90
15184;DHT22;7693;49.266;7.104;2022-09-20T01:14:18;8.90;99.90
15184;DHT22;7693;49.266;7.104;2022-09-20T01:16:46;8.90;99.90
15184;DHT22;7693;49.266;7.104;2022-09-20T01:22:25;8.90;99.90
15184;DHT22;7693;49.266;7.104;2022-09-20T01:24:59;8.90;99.90
15184;DHT22;7693;49.266;7.104;2022-09-20T01:27:45;8.80;99.90
15184;DHT22;7693;49.266;7.104;2022-09-20T01:30:24;8.80;99.90
15184;DHT22;7693;49.266;7.104;2022-09-20T01:35:25;8.80;99.90
15184;DHT22;7693;49.266;7.104;2022-09-20T01:38:18;8.90;99.90
15184;DHT22;7693;49.266;7.104;2022-09-20T01:41:11;8.90;99.90
15184;DHT22;7693;49.266;7.104;2022-09-20T01:44:02;8.90;99.90
15184;DHT22;7693;49.266;7.104;2022-09-20T01:46:32;8.90;99.90
15184;DHT22;7693;49.266;7.104;2022-09-20T01:52:30;8.90;99.90
15184;DHT22;7693;49.266;7.104;2022-09-20T01:58:31;8.80;99.90
15184;DHT22;7693;49.266;7.104;2022-09-20T02:00:43;8.80;99.90
15184;DHT22;7693;49.266;7.104;2022-09-20T02:03:44;8.80;99.90
15184;DHT22;7693;49.266;7.104;2022-09-20T08:29:47;12.10;99.90
15184;DHT22;7693;49.266;7.104;2022-09-20T08:32:14;12.10;99.90
15184;DHT22;7693;49.266;7.104;2022-09-20T08:34:40;12.20;99.90
15184;DHT22;7693;49.266;7.104;2022-09-20T08:37:05;12.30;99.90
15184;DHT22;7693;49.266;7.104;2022-09-20T08:39:31;12.40;99.90
15184;DHT22;7693;49.266;7.104;2022-09-20T08:42:13;12.40;99.90
15184;DHT22;7693;49.266;7.104;2022-09-20T08:44:55;12.60;99.90
15184;DHT22;7693;49.266;7.104;2022-09-20T08:47:30;12.70;99.90
15184;DHT22;7693;49.266;7.104;2022-09-20T08:49:56;12.70;99.90
15184;DHT22;7693;49.266;7.104;2022-09-20T08:52:29;12.70;99.90
15184;DHT22;7693;49.266;7.104;2022-09-20T08:54:56;12.80;99.90
15184;DHT22;7693;49.266;7.104;2022-09-20T08:57:23;13.00;99.90
15184;DHT22;7693;49.266;7.104;2022-09-20T08:59:49;13.10;99.90
15184;DHT22;7693;49.266;7.104;2022-09-20T09:02:18;13.30;99.90
15184;DHT22;7693;49.266;7.104;2022-09-20T09:04:45;13.40;99.90
15184;DHT22;7693;49.266;7.104;2022-09-20T09:07:12;13.50;99.90
15184;DHT22;7693;49.266;7.104;2022-09-20T09:09:41;13.60;99.90
15184;DHT22;7693;49.266;7.104;2022-09-20T09:12:20;13.70;99.90
15184;DHT22;7693;49.266;7.104;2022-09-20T09:14:45;13.80;99.90
15184;DHT22;7693;49.266;7.104;2022-09-20T09:17:27;13.80;99.90
15184;DHT22;7693;49.266;7.104;2022-09-20T09:19:54;13.80;99.90
15184;DHT22;7693;49.266;7.104;2022-09-20T09:30:41;13.90;99.90
15184;DHT22;7693;49.266;7.104;2022-09-20T09:33:26;13.90;99.90
15184;DHT22;7693;49.266;7.104;2022-09-20T09:36:05;14.00;99.90
15184;DHT22;7693;49.266;7.104;2022-09-20T09:38:37;14.00;99.90
15184;DHT22;7693;49.266;7.104;2022-09-20T09:41:05;14.00;99.90
15184;DHT22;7693;49.266;7.104;2022-09-20T09:43:37;14.00;99.90
15184;DHT22;7693;49.266;7.104;2022-09-20T09:46:38;14.10;99.90
15184;DHT22;7693;49.266;7.104;2022-09-20T09:51:34;14.10;99.90
15184;DHT22;7693;49.266;7.104;2022-09-20T09:54:01;14.20;99.90
15184;DHT22;7693;49.266;7.104;2022-09-20T09:59:14;14.40;99.90
15184;DHT22;7693;49.266;7.104;2022-09-20T10:01:51;14.40;99.90
15184;DHT22;7693;49.266;7.104;2022-09-20T10:09:32;14.60;99.90
15184;DHT22;7693;49.266;7.104;2022-09-20T10:12:48;14.60;99.90
15184;DHT22;7693;49.266;7.104;2022-09-20T10:24:00;14.70;99.90
15184;DHT22;7693;49.266;7.104;2022-09-20T10:40:03;14.80;99.90
15184;DHT22;7693;49.266;7.104;2022-09-20T10:42:53;14.80;99.90
15184;DHT22;7693;49.266;7.104;2022-09-20T10:45:56;14.90;99.90
15184;DHT22;7693;49.266;7.104;2022-09-20T10:48:31;14.90;99.90
15184;DHT22;7693;49.266;7.104;2022-09-20T11:53:27;14.90;99.90
15184;DHT22;7693;49.266;7.104;2022-09-20T11:58:51;15.00;99.90
15184;DHT22;7693;49.266;7.104;2022-09-20T12:01:38;15.00;99.90
15184;DHT22;7693;49.266;7.104;2022-09-20T12:06:35;15.10;99.90
15184;DHT22;7693;49.266;7.104;2022-09-20T12:09:06;15.10;99.90
15184;DHT22;7693;49.266;7.104;2022-09-20T12:11:36;15.10;99.90
15184;DHT22;7693;49.266;7.104;2022-09-20T12:14:17;15.10;99.90
15184;DHT22;7693;49.266;7.104;2022-09-20T12:16:45;15.10;99.90
15184;DHT22;7693;49.266;7.104;2022-09-20T12:24:28;15.10;99.90
15184;DHT22;7693;49.266;7.104;2022-09-20T12:26:57;15.10;99.90
15184;DHT22;7693;49.266;7.104;2022-09-20T12:31:52;15.00;99.90
15184;DHT22;7693;49.266;7.104;2022-09-20T12:39:22;14.70;99.90
15184;DHT22;7693;49.266;7.104;2022-09-20T12:44:35;14.50;99.90
15184;DHT22;7693;49.266;7.104;2022-09-20T12:47:04;14.50;99.90
15184;DHT22;7693;49.266;7.104;2022-09-20T12:49:33;14.50;99.90
15184;DHT22;7693;49.266;7.104;2022-09-20T12:52:22;14.40;99.90
15184;DHT22;7693;49.266;7.104;2022-09-20T12:55:10;14.30;99.90
15184;DHT22;7693;49.266;7.104;2022-09-20T12:57:36;14.20;99.90
15184;DHT22;7693;49.266;7.104;2022-09-20T13:00:05;14.20;99.90
15184;DHT22;7693;49.266;7.104;2022-09-20T13:08:00;14.10;99.90
15184;DHT22;7693;49.266;7.104;2022-09-20T13:10:33;14.10;99.90
15184;DHT22;7693;49.266;7.104;2022-09-20T13:13:04;14.10;99.90
15184;DHT22;7693;49.266;7.104;2022-09-20T13:15:35;14.10;99.90
15184;DHT22;7693;49.266;7.104;2022-09-20T13:18:02;14.10;99.90
15184;DHT22;7693;49.266;7.104;2022-09-20T13:20:30;14.20;99.90
15184;DHT22;7693;49.266;7.104;2022-09-20T13:23:00;14.20;99.90
15184;DHT22;7693;49.266;7.104;2022-09-20T13:25:26;14.20;99.90
15184;DHT22;7693;49.266;7.104;2022-09-20T13:28:08;14.20;99.90
15184;DHT22;7693;49.266;7.104;2022-09-20T13:30:38;14.20;99.90
15184;DHT22;7693;49.266;7.104;2022-09-20T13:33:23;14.20;99.90
15184;DHT22;7693;49.266;7.104;2022-09-20T13:35:52;14.20;99.90
15184;DHT22;7693;49.266;7.104;2022-09-20T13:38:19;14.30;99.90
15184;DHT22;7693;49.266;7.104;2022-09-20T13:40:49;14.30;99.90
15184;DHT22;7693;49.266;7.104;2022-09-20T13:43:29;14.30;99.90
15184;DHT22;7693;49.266;7.104;2022-09-20T13:45:57;14.30;99.90
15184;DHT22;7693;49.266;7.104;2022-09-20T13:48:28;14.30;99.90
15184;DHT22;7693;49.266;7.104;2022-09-20T13:50:55;14.30;99.90
15184;DHT22;7693;49.266;7.104;2022-09-20T13:53:22;14.40;99.90
15184;DHT22;7693;49.266;7.104;2022-09-20T13:55:49;14.40;99.90
15184;DHT22;7693;49.266;7.104;2022-09-20T13:58:31;14.50;99.90
15184;DHT22;7693;49.266;7.104;2022-09-20T14:00:59;14.50;99.90
15184;DHT22;7693;49.266;7.104;2022-09-20T14:03:26;14.60;99.90
15184;DHT22;7693;49.266;7.104;2022-09-20T14:05:58;14.60;99.90
15184;DHT22;7693;49.266;7.104;2022-09-20T14:08:32;14.70;99.90
15184;DHT22;7693;49.266;7.104;2022-09-20T14:11:05;14.80;99.90
15184;DHT22;7693;49.266;7.104;2022-09-20T14:13:38;14.90;99.90
15184;DHT22;7693;49.266;7.104;2022-09-20T14:16:06;14.80;99.90
15184;DHT22;7693;49.266;7.104;2022-09-20T14:18:32;14.90;99.90
15184;DHT22;7693;49.266;7.104;2022-09-20T14:20:59;14.90;99.90
15184;DHT22;7693;49.266;7.104;2022-09-20T14:23:26;14.90;99.90
15184;DHT22;7693;49.266;7.104;2022-09-20T14:26:22;15.00;99.90
15184;DHT22;7693;49.266;7.104;2022-09-20T14:28:48;15.20;99.90
15184;DHT22;7693;49.266;7.104;2022-09-20T14:33:48;15.60;99.90
15184;DHT22;7693;49.266;7.104;2022-09-20T14:36:19;15.90;99.90
15184;DHT22;7693;49.266;7.104;2022-09-20T14:38:47;16.00;99.90
15184;DHT22;7693;49.266;7.104;2022-09-20T14:41:27;16.10;99.90
15184;DHT22;7693;49.266;7.104;2022-09-20T14:43:57;16.30;99.90
15184;DHT22;7693;49.266;7.104;2022-09-20T14:46:35;16.50;99.90
15184;DHT22;7693;49.266;7.104;2022-09-20T14:49:29;16.70;99.90
15184;DHT22;7693;49.266;7.104;2022-09-20T14:52:21;16.80;99.90
15184;DHT22;7693;49.266;7.104;2022-09-20T14:55:02;16.50;99.90
15184;DHT22;7693;49.266;7.104;2022-09-20T14:57:28;16.20;99.90
15184;DHT22;7693;49.266;7.104;2022-09-20T14:59:54;15.80;99.90
15184;DHT22;7693;49.266;7.104;2022-09-20T15:02:22;15.60;99.90
15184;DHT22;7693;49.266;7.104;2022-09-20T15:04:54;15.40;99.90
15184;DHT22;7693;49.266;7.104;2022-09-20T15:07:20;15.20;99.90
15184;DHT22;7693;49.266;7.104;2022-09-20T15:09:46;15.30;99.90
15184;DHT22;7693;49.266;7.104;2022-09-20T15:12:15;15.70;99.90
15184;DHT22;7693;49.266;7.104;2022-09-20T15:14:42;16.00;99.90
15184;DHT22;7693;49.266;7.104;2022-09-20T15:17:18;16.10;99.90
15184;DHT22;7693;49.266;7.104;2022-09-20T17:34:48;13.30;99.90
15184;DHT22;7693;49.266;7.104;2022-09-20T17:37:13;13.30;99.90
15184;DHT22;7693;49.266;7.104;2022-09-20T17:39:39;13.30;99.90
15184;DHT22;7693;49.266;7.104;2022-09-20T17:42:05;13.30;99.90
15184;DHT22;7693;49.266;7.104;2022-09-20T17:44:31;13.30;99.90
15184;DHT22;7693;49.266;7.104;2022-09-20T17:47:01;13.20;99.90
15184;DHT22;7693;49.266;7.104;2022-09-20T17:49:26;13.20;99.90
15184;DHT22;7693;49.266;7.104;2022-09-20T17:51:54;13.20;99.90
15184;DHT22;7693;49.266;7.104;2022-09-20T17:54:20;13.20;99.90
15184;DHT22;7693;49.266;7.104;2022-09-20T17:56:48;13.10;99.90
15184;DHT22;7693;49.266;7.104;2022-09-20T17:59:15;13.10;99.90
15184;DHT22;7693;49.266;7.104;2022-09-20T18:01:42;13.10;99.90
15184;DHT22;7693;49.266;7.104;2022-09-20T18:04:09;13.00;99.90
15184;DHT22;7693;49.266;7.104;2022-09-20T18:06:39;13.00;99.90
15184;DHT22;7693;49.266;7.104;2022-09-20T18:09:12;12.90;99.90
15184;DHT22;7693;49.266;7.104;2022-09-20T18:11:43;12.90;99.90
15184;DHT22;7693;49.266;7.104;2022-09-20T18:14:14;12.80;99.90
15184;DHT22;7693;49.266;7.104;2022-09-20T18:16:41;12.90;99.90
15184;DHT22;7693;49.266;7.104;2022-09-20T18:19:09;12.80;99.90
15184;DHT22;7693;49.266;7.104;2022-09-20T18:21:37;12.80;99.90
15184;DHT22;7693;49.266;7.104;2022-09-20T18:24:07;12.80;99.90
15184;DHT22;7693;49.266;7.104;2022-09-20T18:26:33;12.80;99.90
15184;DHT22;7693;49.266;7.104;2022-09-20T18:31:30;12.80;99.90
15184;DHT22;7693;49.266;7.104;2022-09-20T18:34:01;12.80;99.90
15184;DHT22;7693;49.266;7.104;2022-09-20T18:36:28;12.90;99.90
15184;DHT22;7693;49.266;7.104;2022-09-20T18:38:55;12.90;99.90
15184;DHT22;7693;49.266;7.104;2022-09-20T18:41:26;12.90;99.90
15184;DHT22;7693;49.266;7.104;2022-09-20T18:43:54;12.90;99.90
15184;DHT22;7693;49.266;7.104;2022-09-20T18:46:20;12.80;99.90
15184;DHT22;7693;49.266;7.104;2022-09-20T18:48:50;12.80;99.90
15184;DHT22;7693;49.266;7.104;2022-09-20T18:51:16;12.80;99.90
15184;DHT22;7693;49.266;7.104;2022-09-20T18:53:42;12.70;99.90
15184;DHT22;7693;49.266;7.104;2022-09-20T18:56:24;12.70;99.90
15184;DHT22;7693;49.266;7.104;2022-09-20T18:58:52;12.70;99.90
15184;DHT22;7693;49.266;7.104;2022-09-20T19:06:40;12.60;99.90
15184;DHT22;7693;49.266;7.104;2022-09-20T19:12:18;12.60;99.90
15184;DHT22;7693;49.266;7.104;2022-09-20T19:26:20;12.50;99.90
15184;DHT22;7693;49.266;7.104;2022-09-20T19:28:48;12.40;99.90
15184;DHT22;7693;49.266;7.104;2022-09-20T19:31:27;12.40;99.90
15184;DHT22;7693;49.266;7.104;2022-09-20T19:33:54;12.40;99.90
15184;DHT22;7693;49.266;7.104;2022-09-20T19:39:15;12.40;99.90
15184;DHT22;7693;49.266;7.104;2022-09-20T19:50:13;12.20;99.90
15184;DHT22;7693;49.266;7.104;2022-09-20T19:52:43;12.10;99.90
15184;DHT22;7693;49.266;7.104;2022-09-20T19:55:10;12.00;99.90
15184;DHT22;7693;49.266;7.104;2022-09-20T19:57:44;12.00;99.90
15184;DHT22;7693;49.266;7.104;2022-09-20T20:00:16;11.90;99.90
15184;DHT22;7693;49.266;7.104;2022-09-20T20:02:43;11.90;99.90
15184;DHT22;7693;49.266;7.104;2022-09-20T20:05:13;11.80;99.90
15184;DHT22;7693;49.266;7.104;2022-09-20T20:16:01;11.60;99.90
15184;DHT22;7693;49.266;7.104;2022-09-20T20:18:46;11.50;99.90
15184;DHT22;7693;49.266;7.104;2022-09-20T20:21:28;11.50;99.90
15184;DHT22;7693;49.266;7.104;2022-09-20T20:24:23;11.40;99.90
15184;DHT22;7693;49.266;7.104;2022-09-20T20:26:50;11.40;99.90
15184;DHT22;7693;49.266;7.104;2022-09-20T20:29:16;11.40;99.90
15184;DHT22;7693;49.266;7.104;2022-09-20T20:31:41;11.30;99.90
15184;DHT22;7693;49.266;7.104;2022-09-20T20:34:07;11.30;99.90
15184;DHT22;7693;49.266;7.104;2022-09-20T20:36:33;11.30;99.90
15184;DHT22;7693;49.266;7.104;2022-09-20T20:38:59;11.30;99.90
15184;DHT22;7693;49.266;7.104;2022-09-20T20:41:26;11.20;99.90
15184;DHT22;7693;49.266;7.104;2022-09-20T20:43:54;11.20;99.90
15184;DHT22;7693;49.266;7.104;2022-09-20T20:46:20;11.10;99.90
15184;DHT22;7693;49.266;7.104;2022-09-20T20:48:46;11.10;99.90
15184;DHT22;7693;49.266;7.104;2022-09-20T20:51:14;11.10;99.90
15184;DHT22;7693;49.266;7.104;2022-09-20T20:53:42;11.00;99.90
15184;DHT22;7693;49.266;7.104;2022-09-20T20:56:20;11.00;99.90
15184;DHT22;7693;49.266;7.104;2022-09-20T20:58:47;11.00;99.90
15184;DHT22;7693;49.266;7.104;2022-09-20T21:01:13;11.00;99.90
15184;DHT22;7693;49.266;7.104;2022-09-20T21:03:41;10.90;99.90
15184;DHT22;7693;49.266;7.104;2022-09-20T21:06:08;10.90;99.90
15184;DHT22;7693;49.266;7.104;2022-09-20T21:08:36;10.90;99.90
15184;DHT22;7693;49.266;7.104;2022-09-20T21:11:05;10.90;99.90
15184;DHT22;7693;49.266;7.104;2022-09-20T21:13:31;10.90;99.90
15184;DHT22;7693;49.266;7.104;2022-09-20T21:16:27;10.80;99.90
15184;DHT22;7693;49.266;7.104;2022-09-20T21:18:54;10.80;99.90
15184;DHT22;7693;49.266;7.104;2022-09-20T21:21:28;10.70;99.90
15184;DHT22;7693;49.266;7.104;2022-09-20T21:24:00;10.70;99.90
15184;DHT22;7693;49.266;7.104;2022-09-20T21:26:27;10.70;99.90
15184;DHT22;7693;49.266;7.104;2022-09-20T21:28:58;10.60;99.90
15184;DHT22;7693;49.266;7.104;2022-09-20T21:31:25;10.60;99.90
15184;DHT22;7693;49.266;7.104;2022-09-20T21:33:51;10.60;99.90
15184;DHT22;7693;49.266;7.104;2022-09-20T21:36:19;10.60;99.90
15184;DHT22;7693;49.266;7.104;2022-09-20T21:38:45;10.60;99.90
15184;DHT22;7693;49.266;7.104;2022-09-20T21:41:22;10.60;99.90
15184;DHT22;7693;49.266;7.104;2022-09-20T21:43:51;10.60;99.90
